Terminal Aerodrome Forecast
Issued by NWS Wilmington, OH

Current Version | Previous Version | Graphics & Text | Print | Product List | Glossary On
Versions: 1 2 3 4 5 6 7 8 9 10 11 12 13 14 15 16 17 18 19 20 21 22 23 24 25 26 27 28 29
287
FTUS41 KILN 271509 AAB
TAFILN
TAF AMD
KILN 271509Z 2715/2812 VRB05KT P6SM BKN035 BKN250
      TEMPO 2715/2717 BKN015
     FM280000 VRB04KT P6SM SCT120 BKN200
     FM280800 VRB03KT 5SM BR BKN050=

USA.gov is the U.S. government's official web portal to all federal, state and local government web resources and services.